View Sortable Currents For Network
ASOSAWOSCoCoRaHSCOOPDCPISUSM
SchoolNetOtherSCANMy FavoritesBy StateRWIS
RWIS SurfaceRWIS TrafficRWIS SoilBy NWS WFOUSCRN

Current AWOS Conditions

** This page will automatically refresh every five minutes.
Sorted by: (Ob Time)     Click on a column to sort it.

Add ID: Name: Ob Time   Wind [knots]   Rainfall
Temp (Hi / Lo) DewP Feels RH% Dir Speed Peak Gust
@ Time
Alti Vsby Hour Today
VTIVINTON07:20 AM 67(71/67) 66 69 97 90 620 @ 12:50 AM 29.91 4 0
CCYCHARLES CITY07:20 AM 66(66/64) 64 67 93 110 1021 @ 04:35 AM 29.93 0 1.37
SHLSHELDON07:15 AM 64(64/63) 64 66 100 100 14G2021 @ 05:50 AM 29.83 8 0 2.83
RDKRED OAK07:15 AM 73(79/72) 68 75 84 170 912 @ 01:10 AM 29.81 10 0
SLBStorm Lake07:15 AM 64(66/64) 63 65 97 70 15G2127 @ 12:00 AM 29.85 10 0 0.08
OXVKnoxville07:15 AM 68(73/68) 68 70 100 90 36 @ 01:10 AM 29.86 7 0
OLZOELWEIN07:15 AM 66(66/66) 66 68 100 90 1018 @ 12:10 AM 29.93 10 0 0.47
LRJLE MARS07:15 AM 64(66/64) 63 65 97 90 16G2730 @ 06:10 AM 29.8 6 0 0.0001
BNWBOONE MUNI07:15 AM 68(72/68) 66 70 93 100 1123 @ 01:00 AM 29.85 0.5 0
MUTMUSCATINE07:15 AM 66(70/66) 66 68 100 70 47 @ 03:20 AM 29.92 4 0
CBFCOUNCIL BLUFFS07:15 AM 75(81/73) 68 77 79 190 11G1619 @ 02:30 AM 29.79 10 0
ORCOrange City07:15 AM 64(66/63) 64 66 100 110 9G1926 @ 07:00 AM 29.82 10 0 2.55
ADUAUDUBON07:15 AM 68(73/68) 64 87 0 08 @ 12:20 AM 29.83 7 0
EBSWebster City07:15 AM 66(66/66) 66 68 100 90 1021 @ 02:05 AM 29.85 10 0 0.2
AWGWASHINGTON07:15 AM 66(72/66) 66 68 100 90 511 @ 03:50 AM 29.91 1.5 0
MPZMOUNT PLEASANT07:15 AM 73(73/70) 73 76 100 200 57 @ 06:10 AM 29.9 10 0
HPTHampton07:15 AM 64(64/64) 64 66 100 70 1012 @ 06:35 AM 29.85 10 0 0.38
CINCARROLL07:15 AM 68(70/66) 68 70 100 80 617 @ 12:00 AM 29.83 9 0
AIOATLANTIC07:15 AM 75(77/73) 70 75 84 180 8G1515 @ 07:15 AM 29.81 10 0
CSQCRESTON07:15 AM 72(75/72) 68 74 87 170 99 @ 05:15 AM 29.87 10 0
FXYForest City07:15 AM 64(66/64) 64 66 100 110 817 @ 04:10 AM 29.89 10 0 1.99
FFLFAIRFIELD07:15 AM 73(73/72) 72 76 97 190 69 @ 06:00 AM 29.89 6 0
FSWFORT MADISON07:15 AM 75(75/72) 73 73 94 200 67 @ 07:00 AM 29.93 10 0
DNSDENISON07:15 AM 66(72/66) 66 68 100 60 422 @ 12:15 AM 29.83 10 0
IFAIowa Falls07:15 AM 66(67/66) 65 68 97 90 1118 @ 12:10 AM 29.89 10 0 0.54
GGIGrinnell07:15 AM 66(71/66) 65 68 97 90 715 @ 04:00 AM 29.9 0.25 0
EOKKEOKUK MUNI07:15 AM 73(77/73) 72 76 97 210 67 @ 06:10 AM 29.91 10 0
AXAALGONA07:15 AM 64(66/64) 64 66 100 70 827 @ 02:55 AM 29.92 0.75 0
HNRHARLAN07:15 AM 73(77/72) 70 75 90 180 814 @ 06:50 AM 29.8 10 0
I75Osceola07:15 AM 73(75/73) 69 75 87 160 57 @ 05:15 AM 29.87 10 0
TVKCenterville07:15 AM 73(73/72) 73 100 0 03 @ 05:35 AM 29.91 10 0
PEAPELLA07:15 AM 68(72/68) 67 97 0 05 @ 12:40 AM 29.89 5 0
OOAOskaloosa07:15 AM 69(71/68) 69 72 100 140 46 @ 12:55 AM 29.88 7 0
PROPerry07:15 AM 68(68/68) 68 70 100 110 88 @ 07:15 AM 29.84 7 0
CAVCLARION07:15 AM 66(66/66) 63 67 90 80 15G2025 @ 04:40 AM 29.88 10 0 0.24
TNUNEWTON MUNI07:15 AM 66(70/66) 66 68 100 90 816 @ 02:55 AM 29.87 0.25 0 0.03
CNCCHARITON07:15 AM 72(73/72) 70 75 93 190 610 @ 06:20 AM 29.87 10 0
MXOMONTICELLO MUNI07:15 AM 66(68/66) 66 68 100 90 6G1217 @ 01:10 AM 29.92 10 0 0.21
ICLCLARINDA07:15 AM 72(75/68) 68 74 87 190 66 @ 06:50 AM 29.85 10 0
SDASHENANDOAH MUNI07:15 AM 73(79/72) 68 75 84 170 915 @ 12:40 AM 29.82 10 0
IIBINDEPENDENCE07:15 AM 67(71/66) 65 69 93 100 1125 @ 12:00 AM 29.92 10 0 0.16
IKVANKENY07:15 AM 68(72/68) 66 70 93 80 413 @ 01:40 AM 29.86 4 0
DEHDECORAH07:15 AM 64(64/64) 64 66 100 4G1015 @ 12:15 AM 29.94 10 0 0.56
CKPCherokee07:00 AM 64(66/64) 64 66 100 70 12G2033 @ 12:00 AM 29.85 10 0 0.56
FODFORT DODGE06:56 AM 66(67/65) 64 67 93 90 1119 @ 12:30 AM 29.87 10 0 0.0001
CWICLINTON06:56 AM 65(66/64) 64 97 @ 06:00 PM 29.95 3 0